Time;durP1;ratioP1;P1;durP2;ratioP2;P2;SDS_P1;SDS_P2;PMS_P1;PMS_P2;Temp;Humidity;BMP_temperature;BMP_pressure;BME280_temperature;BME280_humidity;BME280_pressure;Samples;Min_cycle;Max_cycle;Signal;HPM_P1;HPM_P2
2023/03/25 00:00:57;;;;;;;3.87;3.50;;;8.90;99.90;;;;;;5045295;28;20822;-73
2023/03/25 00:03:25;;;;;;;4.17;3.50;;;8.90;99.90;;;;;;5036128;28;20439;-72
2023/03/25 00:05:51;;;;;;;5.03;4.53;;;8.90;99.90;;;;;;5035987;28;20444;-72
2023/03/25 00:08:17;;;;;;;4.50;3.87;;;8.90;99.90;;;;;;5032764;28;20460;-74
2023/03/25 00:10:43;;;;;;;3.30;3.00;;;8.80;99.90;;;;;;5031520;28;20404;-70
2023/03/25 00:13:12;;;;;;;5.10;4.10;;;8.90;99.90;;;;;;5035937;28;20227;-70
2023/03/25 00:15:44;;;;;;;3.63;3.33;;;8.90;99.90;;;;;;5032890;28;20408;-69
2023/03/25 00:18:11;;;;;;;4.20;3.90;;;8.80;99.90;;;;;;5043741;28;20450;-73
2023/03/25 00:20:39;;;;;;;5.60;2.90;;;8.80;99.90;;;;;;5033669;28;20429;-70
2023/03/25 00:23:06;;;;;;;4.57;4.10;;;8.80;99.90;;;;;;5048808;28;20423;-69
2023/03/25 00:25:32;;;;;;;6.63;3.63;;;8.80;99.90;;;;;;5056652;28;20905;-73
2023/03/25 00:27:58;;;;;;;7.90;3.63;;;8.80;99.90;;;;;;5056586;28;20405;-72
2023/03/25 00:30:24;;;;;;;4.90;3.83;;;8.80;99.90;;;;;;5054779;28;21175;-73
2023/03/25 00:32:51;;;;;;;10.20;4.70;;;8.90;99.90;;;;;;5045073;28;20409;-73
2023/03/25 00:35:18;;;;;;;4.60;3.97;;;8.90;99.90;;;;;;5047600;28;20440;-70
2023/03/25 00:37:46;;;;;;;5.20;2.93;;;8.90;99.90;;;;;;5056424;28;20954;-74
2023/03/25 00:40:13;;;;;;;7.57;3.37;;;9.00;99.90;;;;;;5054853;28;20417;-73
2023/03/25 00:42:48;;;;;;;9.13;4.00;;;9.00;99.90;;;;;;5056442;28;20448;-69
2023/03/25 00:45:15;;;;;;;5.33;4.07;;;9.00;99.90;;;;;;5056459;28;20376;-73
2023/03/25 00:47:42;;;;;;;3.97;2.97;;;9.00;99.90;;;;;;5040827;28;20783;-73
2023/03/25 00:50:08;;;;;;;5.20;3.70;;;9.00;99.90;;;;;;5040873;28;20465;-69
2023/03/25 00:52:34;;;;;;;4.37;3.77;;;9.00;99.90;;;;;;5050349;28;20459;-74
2023/03/25 00:55:00;;;;;;;3.17;2.87;;;9.10;99.90;;;;;;5047070;28;20429;-74
2023/03/25 00:57:26;;;;;;;3.70;3.40;;;9.10;99.90;;;;;;5039386;28;20458;-69
2023/03/25 00:59:52;;;;;;;4.70;3.40;;;9.00;99.90;;;;;;5042960;28;20956;-73
2023/03/25 01:02:20;;;;;;;6.00;3.03;;;8.90;99.90;;;;;;5054746;28;20464;-70
2023/03/25 01:04:48;;;;;;;3.90;3.57;;;8.90;99.90;;;;;;5042553;28;20183;-73
2023/03/25 01:07:14;;;;;;;4.77;3.50;;;8.90;99.90;;;;;;5048236;28;20436;-75
2023/03/25 01:09:41;;;;;;;9.43;4.43;;;8.90;99.90;;;;;;5039394;28;20426;-70
2023/03/25 01:12:07;;;;;;;5.30;3.73;;;8.90;99.90;;;;;;5033987;28;20445;-73
2023/03/25 01:14:33;;;;;;;5.83;5.23;;;8.90;99.90;;;;;;5050415;28;20442;-72
2023/03/25 01:16:59;;;;;;;9.77;4.40;;;8.90;99.90;;;;;;5037686;28;21019;-73
2023/03/25 01:19:25;;;;;;;4.47;4.03;;;8.90;99.90;;;;;;5035212;28;20400;-73
2023/03/25 01:21:50;;;;;;;5.13;3.73;;;9.00;99.90;;;;;;5034804;28;20389;-73
2023/03/25 01:24:16;;;;;;;5.63;5.10;;;9.00;99.90;;;;;;5034452;28;20423;-74
2023/03/25 01:26:44;;;;;;;4.47;4.17;;;9.10;99.90;;;;;;5033474;28;21357;-69
2023/03/25 01:29:11;;;;;;;5.43;4.70;;;9.10;99.90;;;;;;5042419;28;20428;-73
2023/03/25 01:31:37;;;;;;;9.00;4.40;;;9.10;99.90;;;;;;5053379;28;20424;-74
2023/03/25 01:34:03;;;;;;;7.47;4.43;;;9.00;99.90;;;;;;5039825;28;20434;-74
2023/03/25 01:36:29;;;;;;;12.07;4.77;;;9.00;99.90;;;;;;5034849;28;20287;-70
2023/03/25 01:38:57;;;;;;;6.43;4.60;;;9.10;99.90;;;;;;5034850;28;20429;-70
2023/03/25 01:41:24;;;;;;;8.73;7.03;;;9.10;99.90;;;;;;5033411;28;20575;-73
2023/03/25 01:44:20;;;;;;;10.43;4.80;;;9.10;99.90;;;;;;5038920;28;20497;-73
2023/03/25 01:46:48;;;;;;;6.43;4.90;;;9.00;99.90;;;;;;5033980;28;20444;-72
2023/03/25 01:49:23;;;;;;;6.07;5.57;;;9.00;99.90;;;;;;5036467;28;20445;-72
2023/03/25 01:52:00;;;;;;;5.80;5.27;;;9.00;99.90;;;;;;5051453;28;20467;-70
2023/03/25 01:54:26;;;;;;;7.60;4.97;;;9.00;99.90;;;;;;5040405;28;20957;-73
2023/03/25 01:56:53;;;;;;;7.20;5.57;;;9.10;99.90;;;;;;5053835;28;20514;-73
2023/03/25 01:59:24;;;;;;;6.60;5.93;;;9.10;99.90;;;;;;5054448;28;20426;-74
2023/03/25 02:01:50;;;;;;;6.67;5.87;;;9.10;99.90;;;;;;5044571;28;20455;-73
2023/03/25 02:04:26;;;;;;;8.23;6.60;;;9.10;99.90;;;;;;5049773;28;20956;-70
2023/03/25 02:06:54;;;;;;;9.97;6.10;;;9.10;99.90;;;;;;5042381;28;20810;-70
2023/03/25 02:09:23;;;;;;;9.40;6.97;;;9.10;99.90;;;;;;5035795;28;20436;-73
2023/03/25 02:11:49;;;;;;;7.83;5.63;;;9.10;99.90;;;;;;5033441;28;20509;-70
2023/03/25 02:14:22;;;;;;;6.97;6.30;;;9.10;99.90;;;;;;5042760;28;20520;-73
2023/03/25 02:17:01;;;;;;;5.70;5.17;;;9.10;99.90;;;;;;5034586;28;20463;-69
2023/03/25 02:19:51;;;;;;;6.33;4.80;;;9.20;99.90;;;;;;5033595;28;20389;-75
2023/03/25 02:22:55;;;;;;;21.40;6.40;;;9.10;99.90;;;;;;5033706;28;20782;-71
2023/03/25 02:26:24;;;;;;;8.97;4.40;;;9.10;99.90;;;;;;5032572;28;20425;-74
2023/03/25 02:29:00;;;;;;;7.50;5.60;;;9.00;1.00;;;;;;5032226;28;20393;-73
2023/03/25 02:32:03;;;;;;;6.10;5.50;;;9.00;1.00;;;;;;5040441;28;20448;-70
2023/03/25 02:34:50;;;;;;;12.37;5.30;;;9.00;1.00;;;;;;5054286;28;20784;-72
2023/03/25 02:37:19;;;;;;;5.80;5.23;;;8.90;1.00;;;;;;5054155;28;20449;-72
2023/03/25 02:39:53;;;;;;;9.13;6.30;;;8.90;1.00;;;;;;5054249;28;20394;-74
2023/03/25 02:42:27;;;;;;;6.80;5.57;;;8.80;1.00;;;;;;5052353;28;20813;-71
2023/03/25 02:45:23;;;;;;;7.63;5.83;;;8.80;1.00;;;;;;5052482;28;20535;-72
2023/03/25 02:47:53;;;;;;;13.00;6.50;;;8.80;1.00;;;;;;5033453;28;20438;-71
2023/03/25 02:50:30;;;;;;;8.70;6.40;;;8.90;1.00;;;;;;5032417;28;20774;-71
2023/03/25 02:53:03;;;;;;;10.17;6.03;;;8.90;1.00;;;;;;5032898;28;20549;-74
2023/03/25 02:55:32;;;;;;;7.00;5.93;;;8.90;1.00;;;;;;5033374;28;20408;-73
2023/03/25 02:58:00;;;;;;;7.00;5.47;;;8.90;1.00;;;;;;5033325;28;20454;-71
2023/03/25 03:00:28;;;;;;;7.17;6.43;;;8.90;1.00;;;;;;5032284;28;20881;-73
2023/03/25 03:02:58;;;;;;;7.13;6.43;;;8.90;1.00;;;;;;5049515;28;20416;-71
2023/03/25 03:05:35;;;;;;;10.10;6.30;;;8.90;1.00;;;;;;5051256;28;20818;-70
2023/03/25 03:08:30;;;;;;;6.93;5.90;;;8.90;1.00;;;;;;5049520;28;20423;-73
2023/03/25 03:11:18;;;;;;;7.87;7.00;;;8.90;1.00;;;;;;5035146;28;21005;-71
2023/03/25 03:14:23;;;;;;;10.40;6.73;;;8.90;1.00;;;;;;5032977;28;20765;-70
2023/03/25 03:17:11;;;;;;;9.60;6.50;;;8.90;1.00;;;;;;5047670;28;20478;-74
2023/03/25 03:19:56;;;;;;;10.23;5.60;;;8.80;1.00;;;;;;5033361;28;20434;-73
2023/03/25 03:23:19;;;;;;;7.80;6.27;;;8.90;1.00;;;;;;5032211;28;20457;-70
2023/03/25 03:25:53;;;;;;;14.33;8.60;;;8.90;1.00;;;;;;5051097;28;20468;-71
2023/03/25 03:28:31;;;;;;;7.63;6.23;;;8.80;1.00;;;;;;5057096;28;21006;-74
2023/03/25 03:31:35;;;;;;;6.33;4.70;;;8.80;1.00;;;;;;5037287;28;20419;-70
2023/03/25 03:34:13;;;;;;;5.63;4.33;;;8.90;1.00;;;;;;5034522;28;20602;-75
2023/03/25 03:36:44;;;;;;;7.43;5.40;;;8.80;1.00;;;;;;5053209;28;20518;-74
2023/03/25 03:39:19;;;;;;;12.43;5.10;;;8.80;1.00;;;;;;5041623;28;20449;-71
2023/03/25 03:41:51;;;;;;;12.37;5.40;;;8.80;1.00;;;;;;5031996;28;20417;-71
2023/03/25 03:44:21;;;;;;;8.03;5.57;;;8.80;1.00;;;;;;5032630;28;20442;-71
2023/03/25 03:47:23;;;;;;;12.03;5.10;;;8.80;1.00;;;;;;5032727;28;20430;-71
2023/03/25 03:49:58;;;;;;;8.50;4.90;;;8.80;1.00;;;;;;5037861;28;20469;-71
2023/03/25 03:52:32;;;;;;;16.10;4.57;;;8.80;1.00;;;;;;5046438;28;20455;-69
2023/03/25 03:55:09;;;;;;;9.83;4.87;;;8.80;1.00;;;;;;5033865;28;20481;-72
2023/03/25 03:57:43;;;;;;;4.30;3.90;;;8.80;1.00;;;;;;5032444;28;20928;-69
2023/03/25 04:00:15;;;;;;;5.17;4.67;;;8.70;1.00;;;;;;5032990;28;20437;-69
2023/03/25 04:03:03;;;;;;;3.60;3.13;;;8.60;1.00;;;;;;5038281;28;20445;-70
2023/03/25 04:05:30;;;;;;;2.97;2.67;;;8.50;1.00;;;;;;5038660;28;20440;-68
2023/03/25 04:08:11;;;;;;;7.07;3.50;;;8.40;1.00;;;;;;5032399;28;20410;-71
2023/03/25 04:10:51;;;;;;;3.50;3.20;;;8.40;1.00;;;;;;5034707;28;20942;-69
2023/03/25 04:13:19;;;;;;;4.80;3.50;;;8.40;1.00;;;;;;5033019;28;20458;-74
2023/03/25 04:15:45;;;;;;;3.77;3.47;;;8.50;14.10;;;;;;5032529;28;20392;-68
2023/03/25 04:18:11;;;;;;;4.93;3.50;;;8.50;27.40;;;;;;5038916;28;20814;-70
2023/03/25 04:20:43;;;;;;;7.80;5.50;;;8.50;34.60;;;;;;5051875;28;20373;-68
2023/03/25 04:23:14;;;;;;;7.77;4.87;;;8.60;59.00;;;;;;5041924;28;20524;-67
2023/03/25 04:25:41;;;;;;;5.93;5.30;;;8.60;73.30;;;;;;5033018;28;20378;-70
2023/03/25 04:28:12;;;;;;;7.60;4.70;;;8.60;80.10;;;;;;5032739;28;20426;-69
2023/03/25 04:30:39;;;;;;;6.60;4.20;;;8.60;89.50;;;;;;5040106;28;20828;-68
2023/03/25 04:33:05;;;;;;;7.50;4.20;;;8.60;94.50;;;;;;5050763;28;20438;-68
2023/03/25 04:35:31;;;;;;;9.20;4.97;;;8.70;98.70;;;;;;5040171;28;20444;-69
2023/03/25 04:37:57;;;;;;;6.13;4.30;;;8.60;99.90;;;;;;5032535;28;20447;-68
2023/03/25 04:40:24;;;;;;;8.33;4.70;;;8.60;99.90;;;;;;5031834;28;20473;-67
2023/03/25 04:42:52;;;;;;;10.63;4.07;;;8.60;99.90;;;;;;5032603;28;20183;-69
2023/03/25 04:45:18;;;;;;;8.47;4.60;;;8.50;99.90;;;;;;5032578;28;20425;-70
2023/03/25 04:47:48;;;;;;;4.97;4.23;;;8.50;99.90;;;;;;5032732;28;21018;-69
2023/03/25 04:50:28;;;;;;;8.70;5.00;;;8.50;99.90;;;;;;5034445;28;20435;-69
2023/03/25 04:53:01;;;;;;;4.70;3.60;;;8.40;99.90;;;;;;5047511;28;20780;-67
2023/03/25 04:55:26;;;;;;;11.63;4.40;;;8.40;99.90;;;;;;5050734;28;20429;-68
2023/03/25 04:57:53;;;;;;;5.13;2.70;;;8.30;99.90;;;;;;5047679;28;20821;-69
2023/03/25 05:00:22;;;;;;;6.90;2.73;;;8.30;99.90;;;;;;5046038;28;20172;-69
2023/03/25 05:02:54;;;;;;;3.60;2.57;;;8.20;99.90;;;;;;5030519;28;20401;-68
2023/03/25 05:05:22;;;;;;;4.40;3.07;;;8.20;99.90;;;;;;5031928;28;20402;-69
2023/03/25 05:07:56;;;;;;;3.77;2.93;;;8.20;99.90;;;;;;5038220;28;20428;-69
2023/03/25 05:10:24;;;;;;;4.10;3.00;;;8.10;99.90;;;;;;5034681;28;20373;-68
2023/03/25 05:12:56;;;;;;;3.30;2.50;;;8.10;99.90;;;;;;5038110;28;20458;-68
2023/03/25 05:15:22;;;;;;;7.77;4.20;;;8.20;99.90;;;;;;5043744;28;20965;-68
2023/03/25 05:17:48;;;;;;;2.43;2.13;;;8.20;99.90;;;;;;5041642;28;20490;-69
2023/03/25 05:20:14;;;;;;;2.73;2.53;;;8.20;99.90;;;;;;5042374;28;20437;-69
2023/03/25 05:22:40;;;;;;;3.33;2.47;;;8.20;99.90;;;;;;5043449;28;20190;-68
2023/03/25 05:25:08;;;;;;;2.23;2.13;;;8.20;99.90;;;;;;5036034;28;20752;-67
2023/03/25 05:27:35;;;;;;;4.70;2.77;;;8.20;99.90;;;;;;5036102;28;20440;-69
2023/03/25 05:30:01;;;;;;;3.33;3.10;;;8.20;99.90;;;;;;5038844;28;20441;-69
2023/03/25 05:32:34;;;;;;;6.20;3.57;;;8.20;99.90;;;;;;5054309;28;20534;-69
2023/03/25 05:35:01;;;;;;;2.53;2.33;;;8.10;99.90;;;;;;5041501;28;20932;-68
2023/03/25 05:37:28;;;;;;;8.60;2.67;;;8.10;99.90;;;;;;5033861;28;20421;-69
2023/03/25 05:39:54;;;;;;;5.23;3.50;;;8.10;99.90;;;;;;5046280;28;20803;-71
2023/03/25 05:42:22;;;;;;;7.17;3.77;;;8.10;99.90;;;;;;5054553;28;20421;-69
2023/03/25 05:44:52;;;;;;;5.90;4.63;;;8.10;99.90;;;;;;5035098;28;20822;-69
2023/03/25 05:47:22;;;;;;;12.27;4.33;;;8.20;99.90;;;;;;5034898;28;20444;-69
2023/03/25 05:49:50;;;;;;;5.00;4.50;;;8.20;99.90;;;;;;5037359;28;20892;-69
2023/03/25 05:52:17;;;;;;;5.50;5.10;;;8.20;99.90;;;;;;5035810;28;20459;-69
2023/03/25 05:54:44;;;;;;;13.20;4.97;;;8.10;99.90;;;;;;5042683;28;20430;-69
2023/03/25 05:57:11;;;;;;;13.27;6.33;;;8.10;99.90;;;;;;5036542;28;20516;-68
2023/03/25 05:59:37;;;;;;;6.43;4.33;;;8.20;99.90;;;;;;5034612;28;20459;-69
2023/03/25 06:02:11;;;;;;;9.80;5.43;;;8.20;99.90;;;;;;5033398;28;20449;-69
2023/03/25 06:04:36;;;;;;;12.90;4.40;;;8.30;99.90;;;;;;5049835;28;20432;-69
2023/03/25 06:07:08;;;;;;;4.93;4.47;;;8.30;99.90;;;;;;5037078;28;20517;-69
2023/03/25 06:09:34;;;;;;;5.77;4.30;;;8.20;99.90;;;;;;5050113;28;20622;-69
2023/03/25 06:12:01;;;;;;;5.23;4.80;;;8.20;99.90;;;;;;5048600;28;20962;-69
2023/03/25 06:14:27;;;;;;;5.27;4.53;;;8.20;99.90;;;;;;5041514;28;20416;-69
2023/03/25 06:16:52;;;;;;;4.73;4.33;;;8.20;99.90;;;;;;5053925;28;20501;-67
2023/03/25 06:19:18;;;;;;;8.40;4.37;;;8.20;99.90;;;;;;5048492;28;20180;-69
2023/03/25 06:21:50;;;;;;;6.13;3.80;;;8.20;99.90;;;;;;5033951;28;20616;-68
2023/03/25 06:24:15;;;;;;;5.97;3.30;;;8.20;99.90;;;;;;5034571;28;20168;-69
2023/03/25 06:26:41;;;;;;;3.10;2.90;;;8.10;99.90;;;;;;5053243;28;20483;-68
2023/03/25 06:29:07;;;;;;;3.10;2.90;;;8.10;99.90;;;;;;5048915;28;20179;-68
2023/03/25 06:31:33;;;;;;;6.97;3.17;;;8.00;99.90;;;;;;5040057;28;20544;-68
2023/03/25 06:33:58;;;;;;;7.93;2.73;;;7.90;99.90;;;;;;5054350;28;20532;-69
2023/03/25 06:36:24;;;;;;;2.80;2.50;;;7.90;99.90;;;;;;5054148;28;20170;-68
2023/03/25 06:38:50;;;;;;;2.80;2.60;;;7.90;99.90;;;;;;5054291;28;20159;-68
2023/03/25 06:41:19;;;;;;;5.23;2.70;;;7.90;99.90;;;;;;5053208;28;20612;-68
2023/03/25 06:43:46;;;;;;;3.83;2.60;;;7.90;99.90;;;;;;5054294;28;20406;-68
2023/03/25 06:46:12;;;;;;;3.60;2.17;;;7.90;99.90;;;;;;5046827;28;20437;-67
2023/03/25 06:48:37;;;;;;;2.20;2.00;;;7.90;99.90;;;;;;5034091;28;20394;-69
2023/03/25 06:51:03;;;;;;;1.83;1.73;;;8.00;99.90;;;;;;5033201;28;20450;-68
2023/03/25 06:53:29;;;;;;;2.13;1.90;;;8.00;99.90;;;;;;5043301;28;20672;-68
2023/03/25 06:55:56;;;;;;;2.90;1.83;;;8.00;99.90;;;;;;5034041;28;20400;-69
2023/03/25 06:58:22;;;;;;;6.07;3.30;;;8.00;99.90;;;;;;5035115;28;20211;-68
2023/03/25 07:00:55;;;;;;;5.97;2.60;;;8.00;99.90;;;;;;5032355;28;20970;-69
2023/03/25 07:03:21;;;;;;;7.67;2.30;;;8.00;99.90;;;;;;5033021;28;20201;-68
2023/03/25 07:05:47;;;;;;;6.77;2.50;;;8.00;99.90;;;;;;5049095;28;20707;-68
2023/03/25 07:08:14;;;;;;;4.40;2.33;;;8.10;99.90;;;;;;5033816;28;20178;-68
2023/03/25 07:10:40;;;;;;;6.17;3.00;;;8.10;99.90;;;;;;5032838;28;20381;-68
2023/03/25 07:13:05;;;;;;;2.13;2.03;;;8.10;99.90;;;;;;5033031;28;20465;-68
2023/03/25 07:15:31;;;;;;;5.37;2.17;;;8.10;99.90;;;;;;5034063;28;20174;-68
2023/03/25 07:17:57;;;;;;;2.33;1.87;;;8.10;99.90;;;;;;5032251;28;20244;-68
2023/03/25 07:20:22;;;;;;;6.37;3.00;;;8.20;99.90;;;;;;5033254;28;20928;-68
2023/03/25 07:22:48;;;;;;;7.70;3.27;;;8.20;99.90;;;;;;5053318;28;20183;-70
2023/03/25 07:25:14;;;;;;;6.53;3.63;;;8.20;99.90;;;;;;5047153;28;20208;-69
2023/03/25 07:27:40;;;;;;;2.87;1.93;;;8.20;99.90;;;;;;5053419;28;20627;-69
2023/03/25 07:30:06;;;;;;;3.87;2.37;;;8.20;99.90;;;;;;5051960;28;20433;-73
2023/03/25 07:32:32;;;;;;;6.97;3.47;;;8.30;99.90;;;;;;5033836;28;20607;-68
2023/03/25 07:34:57;;;;;;;5.47;2.23;;;8.30;99.90;;;;;;5033330;28;20381;-70
2023/03/25 07:37:23;;;;;;;3.23;2.03;;;8.40;99.90;;;;;;5050235;28;20212;-67
2023/03/25 07:39:49;;;;;;;10.37;2.50;;;8.50;99.90;;;;;;5037152;28;20177;-70
2023/03/25 07:42:15;;;;;;;3.13;2.10;;;8.60;99.90;;;;;;5047784;28;20686;-67
2023/03/25 07:44:40;;;;;;;5.77;2.87;;;8.60;99.90;;;;;;5053123;28;20166;-68
2023/03/25 07:47:06;;;;;;;3.20;2.60;;;8.60;99.90;;;;;;5038964;28;20183;-69
2023/03/25 07:49:31;;;;;;;3.43;2.23;;;8.50;99.90;;;;;;5032124;28;20187;-68
2023/03/25 07:51:57;;;;;;;2.63;2.10;;;8.50;99.90;;;;;;5042395;28;20242;-69
2023/03/25 07:54:23;;;;;;;3.50;2.90;;;8.40;99.90;;;;;;5033025;28;20211;-69
2023/03/25 07:56:53;;;;;;;3.63;2.77;;;8.30;99.90;;;;;;5042580;28;20191;-69
2023/03/25 07:59:19;;;;;;;5.93;3.17;;;8.40;99.90;;;;;;5052876;28;20166;-69
2023/03/25 08:01:44;;;;;;;4.53;2.37;;;8.40;99.90;;;;;;5042512;28;20415;-68
2023/03/25 08:04:12;;;;;;;3.50;2.30;;;8.40;99.90;;;;;;5033001;28;20199;-69
2023/03/25 08:06:38;;;;;;;5.00;3.00;;;8.50;99.90;;;;;;5039348;28;20263;-70
2023/03/25 08:09:05;;;;;;;4.30;2.97;;;8.50;99.90;;;;;;5032976;28;20469;-69
2023/03/25 08:11:31;;;;;;;3.83;3.53;;;8.50;99.90;;;;;;5031992;28;20443;-70
2023/03/25 08:13:57;;;;;;;7.90;3.13;;;8.50;99.90;;;;;;5032285;28;20862;-69
2023/03/25 08:16:22;;;;;;;3.50;3.20;;;8.60;99.90;;;;;;5040908;28;20204;-69
2023/03/25 08:18:51;;;;;;;13.77;4.23;;;8.70;99.90;;;;;;5052810;28;20163;-69
2023/03/25 08:21:23;;;;;;;4.70;3.17;;;8.80;99.90;;;;;;5043336;28;20184;-70
2023/03/25 08:23:51;;;;;;;10.67;3.57;;;8.90;99.90;;;;;;5052781;28;20414;-70
2023/03/25 08:26:17;;;;;;;6.13;3.33;;;8.90;99.90;;;;;;5042295;28;20414;-69
2023/03/25 08:28:42;;;;;;;9.13;3.43;;;9.10;99.90;;;;;;5032231;28;20405;-70
2023/03/25 08:31:08;;;;;;;4.13;2.77;;;9.10;99.90;;;;;;5051424;28;20187;-68
2023/03/25 08:33:39;;;;;;;7.10;3.13;;;9.00;99.90;;;;;;5051011;28;20168;-70
2023/03/25 08:36:08;;;;;;;6.90;3.73;;;9.00;99.90;;;;;;5050094;28;20202;-70
2023/03/25 08:38:34;;;;;;;7.90;2.50;;;9.00;99.90;;;;;;5052501;28;20443;-71
2023/03/25 08:41:01;;;;;;;7.20;2.93;;;9.10;99.90;;;;;;5034308;28;20803;-70
2023/03/25 08:43:27;;;;;;;4.77;2.83;;;9.30;99.90;;;;;;5036291;28;20396;-69
2023/03/25 08:45:52;;;;;;;4.90;3.50;;;9.40;99.90;;;;;;5038257;28;20390;-70
2023/03/25 08:48:18;;;;;;;5.00;3.37;;;9.40;99.90;;;;;;5035875;28;20704;-70
2023/03/25 08:50:44;;;;;;;6.80;3.90;;;9.50;99.90;;;;;;5034431;28;20189;-68
2023/03/25 08:53:09;;;;;;;3.30;2.93;;;9.60;99.90;;;;;;5036373;28;20727;-71
2023/03/25 08:55:39;;;;;;;5.90;3.53;;;9.70;99.90;;;;;;5044387;28;20180;-69
2023/03/25 08:58:06;;;;;;;3.77;3.47;;;9.80;99.90;;;;;;5055054;28;20536;-70
2023/03/25 09:00:34;;;;;;;7.33;3.80;;;9.70;99.90;;;;;;5055430;28;20379;-69
2023/03/25 09:02:59;;;;;;;8.97;3.70;;;9.70;99.90;;;;;;5044463;28;20443;-69
2023/03/25 09:05:25;;;;;;;9.77;3.70;;;9.70;99.90;;;;;;5035505;28;20408;-69
2023/03/25 09:07:51;;;;;;;5.80;3.53;;;9.60;99.90;;;;;;5034806;28;20187;-70
2023/03/25 09:10:17;;;;;;;6.70;2.67;;;9.60;99.90;;;;;;5034304;28;20434;-70
2023/03/25 09:12:43;;;;;;;6.90;4.30;;;9.60;99.90;;;;;;5035847;28;21030;-69
2023/03/25 09:15:10;;;;;;;14.77;3.23;;;9.60;99.90;;;;;;5036088;28;20176;-68
2023/03/25 09:17:37;;;;;;;11.23;3.03;;;9.60;98.80;;;;;;5034564;28;20459;-71
2023/03/25 09:20:03;;;;;;;8.50;2.77;;;9.50;95.00;;;;;;5034704;28;20494;-73
2023/03/25 09:22:29;;;;;;;8.67;3.73;;;9.40;80.70;;;;;;5034862;28;20423;-70
2023/03/25 09:24:55;;;;;;;2.83;2.63;;;9.40;71.10;;;;;;5035825;28;20884;-70
2023/03/25 09:27:20;;;;;;;6.50;3.33;;;9.30;73.70;;;;;;5034436;28;20640;-68
2023/03/25 09:29:46;;;;;;;4.83;3.10;;;9.30;72.40;;;;;;5034462;28;20184;-72
2023/03/25 09:32:12;;;;;;;5.47;3.00;;;9.30;80.70;;;;;;5034572;28;20198;-70
2023/03/25 09:34:38;;;;;;;4.67;3.07;;;9.30;80.70;;;;;;5044864;28;20199;-72
2023/03/25 09:37:04;;;;;;;4.80;3.27;;;9.30;66.20;;;;;;5054545;28;20942;-72
2023/03/25 09:39:30;;;;;;;6.37;2.70;;;9.30;45.00;;;;;;5055404;28;20213;-70
2023/03/25 09:42:17;;;;;;;7.90;3.30;;;9.40;36.20;;;;;;5052553;28;20547;-74
2023/03/25 09:45:06;;;;;;;7.63;3.63;;;9.70;35.10;;;;;;5055278;28;20406;-73
2023/03/25 09:47:34;;;;;;;3.40;3.10;;;9.80;32.80;;;;;;5048500;28;20415;-71
2023/03/25 09:50:09;;;;;;;9.87;3.10;;;10.20;32.10;;;;;;5033564;28;20398;-72
2023/03/25 09:53:11;;;;;;;5.70;3.97;;;10.30;1.00;;;;;;5033333;28;20798;-73
2023/03/25 09:55:43;;;;;;;11.63;3.83;;;10.20;1.00;;;;;;5035222;28;20738;-71
2023/03/25 09:58:23;;;;;;;4.10;3.00;;;10.10;1.00;;;;;;5034961;28;20424;-71
2023/03/25 10:01:22;;;;;;;11.00;3.73;;;10.00;1.00;;;;;;5033761;28;20868;-71
2023/03/25 10:04:00;;;;;;;9.87;3.47;;;10.00;1.00;;;;;;5044999;28;20911;-71
2023/03/25 10:06:26;;;;;;;14.63;4.07;;;9.90;1.00;;;;;;5054846;28;20410;-71
2023/03/25 10:09:09;;;;;;;10.33;3.70;;;9.80;1.00;;;;;;5054795;28;20379;-72
2023/03/25 10:11:56;;;;;;;4.60;3.30;;;9.80;1.00;;;;;;5053903;28;20407;-70
2023/03/25 10:14:33;;;;;;;13.13;3.73;;;9.60;1.00;;;;;;5054739;28;20415;-71
2023/03/25 10:17:04;;;;;;;3.83;2.27;;;9.50;1.00;;;;;;5042678;28;20428;-71
2023/03/25 10:19:33;;;;;;;7.27;2.97;;;9.30;1.00;;;;;;5034512;28;20404;-70
2023/03/25 10:22:10;;;;;;;6.83;3.00;;;9.30;1.00;;;;;;5050236;28;20446;-71
2023/03/25 10:24:55;;;;;;;5.93;2.73;;;9.20;1.00;;;;;;5054304;28;20374;-69
2023/03/25 10:27:38;;;;;;;5.20;4.73;;;9.00;19.50;;;;;;5046445;28;20402;-69
2023/03/25 10:30:34;;;;;;;9.03;3.30;;;8.90;31.90;;;;;;5034047;28;20413;-75
2023/03/25 10:33:03;;;;;;;7.33;3.23;;;8.80;67.30;;;;;;5033122;28;20491;-69
2023/03/25 10:35:46;;;;;;;10.80;3.07;;;8.70;77.90;;;;;;5041431;28;20405;-68
2023/03/25 10:38:23;;;;;;;2.77;2.30;;;8.60;90.50;;;;;;5054254;28;20437;-70
2023/03/25 10:40:52;;;;;;;1.77;1.67;;;8.50;99.90;;;;;;5051589;28;20388;-70
2023/03/25 10:43:37;;;;;;;3.33;2.13;;;8.40;99.10;;;;;;5048570;28;20771;-70
2023/03/25 10:46:46;;;;;;;6.90;2.23;;;8.20;90.60;;;;;;5051043;28;20517;-68
2023/03/25 10:49:19;;;;;;;3.13;2.83;;;8.30;92.80;;;;;;5053078;28;20429;-69
2023/03/25 10:51:48;;;;;;;9.63;2.87;;;8.40;99.90;;;;;;5052900;28;20445;-71
2023/03/25 10:54:16;;;;;;;5.23;2.60;;;8.60;99.90;;;;;;5054038;28;20415;-70
2023/03/25 10:56:50;;;;;;;3.40;2.53;;;9.00;99.90;;;;;;5050647;28;20455;-71
2023/03/25 10:59:26;;;;;;;3.70;2.90;;;9.40;99.90;;;;;;5033638;28;20833;-68
2023/03/25 11:01:54;;;;;;;9.93;3.97;;;9.40;99.90;;;;;;5033109;28;20420;-69
2023/03/25 11:04:21;;;;;;;7.23;2.77;;;9.50;97.20;;;;;;5033105;28;20393;-69
2023/03/25 11:06:56;;;;;;;3.83;2.43;;;9.20;80.60;;;;;;5033804;28;20822;-69
2023/03/25 11:09:29;;;;;;;6.37;2.93;;;8.80;20.80;;;;;;5033820;28;20376;-71
2023/03/25 11:11:58;;;;;;;3.00;2.80;;;8.40;31.40;;;;;;5031225;28;20447;-71
2023/03/25 11:14:26;;;;;;;5.60;3.07;;;8.30;45.40;;;;;;5033709;28;20388;-69
2023/03/25 11:16:59;;;;;;;5.07;2.50;;;8.20;79.80;;;;;;5033557;28;20436;-70
2023/03/25 11:19:48;;;;;;;6.20;3.80;;;8.20;94.40;;;;;;5032994;28;20412;-70
2023/03/25 11:22:19;;;;;;;6.77;4.30;;;8.10;97.50;;;;;;5032723;28;20517;-68
2023/03/25 11:24:53;;;;;;;4.80;3.63;;;8.20;99.90;;;;;;5033447;28;20867;-70
2023/03/25 11:27:23;;;;;;;5.53;3.60;;;8.20;99.90;;;;;;5033591;28;20854;-70
2023/03/25 11:29:52;;;;;;;4.47;3.87;;;8.20;99.90;;;;;;5033331;28;20372;-70
2023/03/25 11:32:38;;;;;;;4.40;3.97;;;8.20;99.90;;;;;;5032596;28;20400;-69
2023/03/25 11:35:16;;;;;;;5.83;3.70;;;8.60;99.90;;;;;;5033282;28;20389;-70
2023/03/25 11:37:47;;;;;;;9.30;4.47;;;9.00;99.90;;;;;;5032880;28;20453;-69
2023/03/25 11:40:17;;;;;;;10.17;5.33;;;9.30;99.90;;;;;;5031695;28;20438;-71
2023/03/25 11:42:52;;;;;;;6.63;4.20;;;9.70;99.90;;;;;;5031925;28;20440;-72
2023/03/25 11:45:23;;;;;;;3.33;3.03;;;10.20;99.90;;;;;;5033311;28;20430;-71
2023/03/25 11:47:50;;;;;;;6.80;3.20;;;10.30;52.20;;;;;;5033248;28;20431;-71
2023/03/25 11:50:22;;;;;;;8.03;3.30;;;10.50;24.90;;;;;;5032166;28;20479;-68
2023/03/25 11:52:52;;;;;;;6.40;2.90;;;10.40;1.00;;;;;;5033037;28;20913;-71
2023/03/25 11:55:27;;;;;;;7.83;4.90;;;10.30;1.00;;;;;;5032349;28;20423;-72
2023/03/25 11:57:56;;;;;;;5.33;2.87;;;10.30;1.00;;;;;;5032729;28;20427;-71
2023/03/25 12:00:28;;;;;;;10.57;3.20;;;10.10;1.00;;;;;;5032165;28;20405;-69
2023/03/25 12:03:12;;;;;;;2.63;2.33;;;9.90;1.00;;;;;;5031646;28;20762;-71
2023/03/25 12:05:38;;;;;;;12.83;3.60;;;9.70;1.00;;;;;;5032935;28;20379;-70
2023/03/25 12:08:15;;;;;;;7.33;2.80;;;9.60;1.00;;;;;;5036348;28;20777;-71
2023/03/25 12:11:02;;;;;;;10.80;2.97;;;9.40;1.00;;;;;;5050990;28;20470;-70
2023/03/25 12:13:31;;;;;;;7.30;3.07;;;9.30;1.00;;;;;;5046513;28;20810;-70
2023/03/25 12:16:16;;;;;;;3.83;2.37;;;9.30;1.00;;;;;;5055039;28;20897;-71
2023/03/25 12:19:03;;;;;;;4.47;2.63;;;9.20;1.00;;;;;;5056916;28;20491;-70
2023/03/25 12:21:51;;;;;;;5.50;2.70;;;9.10;8.10;;;;;;5055833;28;20812;-71
2023/03/25 12:24:46;;;;;;;5.80;2.70;;;9.00;32.10;;;;;;5056742;28;20432;-71
2023/03/25 12:27:44;;;;;;;2.70;2.20;;;9.00;60.10;;;;;;5046190;28;20440;-70
2023/03/25 12:30:27;;;;;;;4.53;1.90;;;8.90;80.30;;;;;;5040363;28;20442;-70
2023/03/25 12:33:01;;;;;;;2.83;1.93;;;8.70;69.80;;;;;;5035352;28;20934;-69
2023/03/25 12:35:59;;;;;;;1.90;1.80;;;8.60;68.50;;;;;;5035314;28;20506;-70
2023/03/25 12:38:41;;;;;;;3.73;2.00;;;8.50;65.50;;;;;;5035846;28;20519;-70
2023/03/25 12:41:27;;;;;;;5.23;2.13;;;8.40;40.80;;;;;;5035612;28;20787;-72
2023/03/25 12:43:52;;;;;;;2.23;2.00;;;8.20;58.70;;;;;;5036102;28;20469;-69
2023/03/25 12:46:27;;;;;;;2.70;1.87;;;8.20;79.80;;;;;;5036531;28;20461;-70
2023/03/25 12:49:32;;;;;;;1.77;1.67;;;8.30;94.40;;;;;;5035951;28;20536;-70
2023/03/25 12:52:16;;;;;;;1.53;1.43;;;8.30;99.90;;;;;;5052302;28;20470;-69
2023/03/25 12:55:05;;;;;;;2.10;1.57;;;8.40;99.90;;;;;;5056413;28;20405;-71
2023/03/25 12:57:56;;;;;;;2.73;1.40;;;8.40;99.90;;;;;;5053628;28;20461;-70
2023/03/25 13:00:40;;;;;;;3.03;1.93;;;8.40;99.90;;;;;;5035391;28;20418;-70
2023/03/25 13:03:21;;;;;;;1.73;1.63;;;8.40;99.90;;;;;;5036190;28;20833;-69
2023/03/25 13:06:03;;;;;;;3.47;2.10;;;8.40;99.90;;;;;;5035970;28;20413;-72
2023/03/25 13:08:48;;;;;;;2.00;1.80;;;8.50;99.90;;;;;;5035718;28;20389;-70
2023/03/25 13:11:24;;;;;;;3.00;2.80;;;8.60;99.90;;;;;;5035252;28;20407;-69
2023/03/25 13:13:55;;;;;;;1.87;1.70;;;8.60;99.90;;;;;;5035714;28;20426;-70
2023/03/25 13:16:24;;;;;;;8.87;1.97;;;9.40;99.90;;;;;;5035904;28;20409;-68
2023/03/25 13:18:55;;;;;;;1.93;1.37;;;10.80;99.90;;;;;;5035925;28;20536;-69
2023/03/25 13:21:25;;;;;;;1.20;1.10;;;11.20;99.30;;;;;;5035016;28;20854;-69
2023/03/25 13:24:03;;;;;;;2.13;1.70;;;11.10;1.00;;;;;;5034552;28;20411;-69